Time;durP1;ratioP1;P1;durP2;ratioP2;P2;SDS_P1;SDS_P2;PMS_P1;PMS_P2;Temp;Humidity;BMP_temperature;BMP_pressure;BME280_temperature;BME280_humidity;BME280_pressure;Samples;Min_cycle;Max_cycle;Signal;HPM_P1;HPM_P2
2021/09/22 00:00:55;;;;;;;10.48;7.60;;;;;;;4.20;100.00;94161.00;2594553;22;20015;-79
2021/09/22 00:01:56;;;;;;;8.63;7.75;;;;;;;4.24;100.00;94157.31;2582179;22;20000;-81
2021/09/22 00:02:57;;;;;;;10.68;7.63;;;;;;;4.20;100.00;94158.34;2581279;23;20327;-77
2021/09/22 00:03:58;;;;;;;9.07;7.45;;;;;;;4.14;100.00;94151.81;2581724;23;20011;-79
2021/09/22 00:04:59;;;;;;;8.68;7.45;;;;;;;4.13;100.00;94156.34;2582029;22;20378;-80
2021/09/22 00:06:00;;;;;;;8.48;7.57;;;;;;;4.18;100.00;94150.00;2581941;22;20012;-77
2021/09/22 00:07:02;;;;;;;8.32;7.50;;;;;;;4.15;100.00;94146.16;2594452;22;20019;-78
2021/09/22 00:08:03;;;;;;;9.45;7.63;;;;;;;4.27;100.00;94147.91;2581667;23;20004;-77
2021/09/22 00:09:04;;;;;;;9.00;7.47;;;;;;;4.26;100.00;94149.78;2568971;23;20158;-78
2021/09/22 00:10:07;;;;;;;11.10;8.20;;;;;;;4.20;100.00;94142.47;2568939;23;20035;-78
2021/09/22 00:11:08;;;;;;;8.35;7.50;;;;;;;4.28;100.00;94136.97;2582606;22;20004;-80
2021/09/22 00:12:09;;;;;;;8.38;7.43;;;;;;;4.23;100.00;94136.50;2594721;22;20436;-77
2021/09/22 00:13:10;;;;;;;8.20;7.38;;;;;;;4.27;100.00;94135.44;2581374;22;20051;-77
2021/09/22 00:14:11;;;;;;;9.82;7.03;;;;;;;4.16;100.00;94134.47;2581926;23;20039;-77
2021/09/22 00:15:12;;;;;;;9.98;7.65;;;;;;;4.32;100.00;94131.75;2569221;23;20410;-78
2021/09/22 00:16:13;;;;;;;8.40;7.60;;;;;;;4.33;100.00;94133.28;2582032;22;20000;-76
2021/09/22 00:17:14;;;;;;;8.02;7.22;;;;;;;4.19;100.00;94130.38;2594605;22;20010;-81
2021/09/22 00:18:15;;;;;;;8.43;7.30;;;;;;;4.16;100.00;94126.53;2581105;23;20011;-75
2021/09/22 00:19:16;;;;;;;7.78;7.07;;;;;;;4.11;100.00;94126.81;2594024;22;20488;-77
2021/09/22 00:20:22;;;;;;;8.40;7.25;;;;;;;4.26;100.00;94130.50;2594411;22;20037;-76
2021/09/22 00:21:23;;;;;;;10.25;8.02;;;;;;;4.19;100.00;94128.47;2582862;22;20004;-78
2021/09/22 00:22:24;;;;;;;7.97;6.93;;;;;;;4.27;100.00;94132.78;2581969;22;20007;-78
2021/09/22 00:23:25;;;;;;;8.38;7.28;;;;;;;4.26;100.00;94125.97;2594060;22;19999;-78
2021/09/22 00:24:26;;;;;;;10.57;7.30;;;;;;;4.16;100.00;94139.00;2581490;22;20000;-80
2021/09/22 00:25:29;;;;;;;10.23;8.10;;;;;;;4.14;100.00;94133.31;2594270;22;20075;-78
2021/09/22 00:26:30;;;;;;;7.93;7.22;;;;;;;4.13;100.00;94134.41;2581835;23;20027;-77
2021/09/22 00:27:31;;;;;;;8.32;7.40;;;;;;;4.15;100.00;94145.41;2581881;22;20008;-78
2021/09/22 00:28:32;;;;;;;8.77;7.47;;;;;;;4.18;100.00;94145.47;2581552;23;20058;-76
2021/09/22 00:29:33;;;;;;;8.52;7.32;;;;;;;4.10;100.00;94141.16;2581455;23;20390;-78
2021/09/22 00:30:35;;;;;;;8.32;6.97;;;;;;;4.04;100.00;94143.34;2581521;23;20042;-78
2021/09/22 00:31:37;;;;;;;7.90;7.10;;;;;;;4.16;100.00;94139.00;2582102;22;20028;-78
2021/09/22 00:32:38;;;;;;;10.02;7.40;;;;;;;4.06;100.00;94142.97;2569239;23;20009;-77
2021/09/22 00:33:39;;;;;;;10.50;7.78;;;;;;;3.97;100.00;94137.13;2569349;22;20011;-81
2021/09/22 00:34:40;;;;;;;9.23;7.95;;;;;;;3.99;100.00;94138.28;2568952;23;20478;-81
2021/09/22 00:35:41;;;;;;;7.90;7.13;;;;;;;4.00;100.00;94144.38;2581683;22;20020;-79
2021/09/22 00:36:43;;;;;;;7.68;6.88;;;;;;;3.99;100.00;94140.94;2581764;23;20079;-78
2021/09/22 00:37:44;;;;;;;9.38;7.80;;;;;;;4.09;100.00;94144.94;2569738;22;20058;-77
2021/09/22 00:38:45;;;;;;;10.38;7.55;;;;;;;4.05;100.00;94138.81;2593960;22;20533;-80
2021/09/22 00:39:46;;;;;;;8.68;7.85;;;;;;;3.92;100.00;94150.63;2594164;22;20046;-78
2021/09/22 00:40:48;;;;;;;8.68;7.78;;;;;;;3.98;100.00;94142.06;2581245;22;20402;-76
2021/09/22 00:41:49;;;;;;;8.80;7.78;;;;;;;4.08;100.00;94150.56;2594234;22;20007;-77
2021/09/22 00:42:50;;;;;;;9.95;7.55;;;;;;;4.03;100.00;94147.06;2595145;22;20015;-79
2021/09/22 00:43:52;;;;;;;9.60;7.57;;;;;;;4.10;100.00;94143.03;2581740;23;20008;-77
2021/09/22 00:44:57;;;;;;;9.98;7.90;;;;;;;4.04;100.00;94142.56;2556862;23;20036;-78
2021/09/22 00:46:04;;;;;;;9.75;7.38;;;;;;;3.98;100.00;94149.22;2572017;22;20012;-79
2021/09/22 00:47:04;;;;;;;7.88;7.07;;;;;;;3.98;100.00;94143.94;2595338;22;20004;-78
2021/09/22 00:48:05;;;;;;;7.88;7.07;;;;;;;4.03;100.00;94139.13;2595132;22;20004;-77
2021/09/22 00:49:06;;;;;;;9.50;7.28;;;;;;;4.15;100.00;94140.88;2581349;23;20004;-80
2021/09/22 00:50:08;;;;;;;12.80;7.85;;;;;;;4.01;100.00;94143.25;2568726;22;20506;-75
2021/09/22 00:51:09;;;;;;;10.32;8.40;;;;;;;3.85;100.00;94148.59;2581290;22;20004;-81
2021/09/22 00:52:12;;;;;;;8.10;7.30;;;;;;;3.94;100.00;94143.88;2594214;22;20157;-76
2021/09/22 00:53:13;;;;;;;9.80;6.95;;;;;;;3.92;100.00;94142.69;2595012;22;20083;-76
2021/09/22 00:54:15;;;;;;;9.02;8.05;;;;;;;3.99;100.00;94138.28;2595038;22;20004;-75
2021/09/22 00:55:16;;;;;;;8.68;7.78;;;;;;;3.88;100.00;94139.22;2594316;22;20007;-79
2021/09/22 00:56:17;;;;;;;9.23;8.18;;;;;;;3.82;100.00;94132.66;2568913;23;20456;-77
2021/09/22 00:57:19;;;;;;;8.40;7.57;;;;;;;3.82;100.00;94125.50;2581697;22;20008;-76
2021/09/22 00:58:20;;;;;;;9.52;8.23;;;;;;;3.81;100.00;94141.72;2594105;22;20089;-78
2021/09/22 00:59:21;;;;;;;11.38;7.65;;;;;;;3.75;100.00;94134.06;2595192;22;20365;-79
2021/09/22 01:00:26;;;;;;;9.23;8.07;;;;;;;3.76;100.00;94140.09;2594319;22;20004;-77
2021/09/22 01:01:27;;;;;;;9.73;7.20;;;;;;;3.78;100.00;94137.91;2582362;22;20034;-74
2021/09/22 01:02:28;;;;;;;8.68;7.88;;;;;;;3.87;100.00;94138.44;2581747;22;20073;-79
2021/09/22 01:03:29;;;;;;;8.05;7.25;;;;;;;3.92;100.00;94145.34;2594108;22;20431;-79
2021/09/22 01:04:30;;;;;;;9.10;8.07;;;;;;;3.89;100.00;94140.75;2593778;22;20009;-77
2021/09/22 01:05:31;;;;;;;9.90;8.48;;;;;;;4.01;100.00;94137.97;2594377;22;20074;-78
2021/09/22 01:06:32;;;;;;;9.63;8.23;;;;;;;3.95;100.00;94139.34;2594019;22;19995;-81
2021/09/22 01:07:33;;;;;;;10.55;7.82;;;;;;;3.91;100.00;94143.81;2581597;22;20015;-78
2021/09/22 01:08:34;;;;;;;11.93;8.25;;;;;;;3.89;100.00;94141.50;2569125;23;20086;-76
2021/09/22 01:09:36;;;;;;;13.82;8.13;;;;;;;3.84;100.00;94141.78;2556448;23;20005;-77
2021/09/22 01:10:37;;;;;;;9.20;7.95;;;;;;;3.87;100.00;94146.38;2582142;22;20093;-80
2021/09/22 01:11:39;;;;;;;10.90;7.47;;;;;;;3.94;100.00;94143.09;2594084;22;20406;-79
2021/09/22 01:12:40;;;;;;;12.40;8.20;;;;;;;3.88;100.00;94141.84;2594269;22;20004;-76
2021/09/22 01:13:41;;;;;;;9.52;7.20;;;;;;;3.91;100.00;94141.94;2595032;22;20000;-81
2021/09/22 01:14:42;;;;;;;8.85;7.97;;;;;;;3.90;100.00;94142.25;2594842;22;19996;-81
2021/09/22 01:15:44;;;;;;;10.15;7.50;;;;;;;3.95;100.00;94140.13;2582005;23;19995;-76
2021/09/22 01:16:45;;;;;;;8.88;7.50;;;;;;;3.92;100.00;94145.34;2556900;23;20016;-79
2021/09/22 01:17:46;;;;;;;9.15;8.25;;;;;;;3.88;100.00;94144.50;2581924;22;20010;-79
2021/09/22 01:18:47;;;;;;;9.77;7.75;;;;;;;3.89;100.00;94140.75;2594869;22;20212;-82
2021/09/22 01:19:48;;;;;;;8.68;7.47;;;;;;;3.88;100.00;94139.22;2595082;22;20007;-78
2021/09/22 01:20:52;;;;;;;9.73;7.68;;;;;;;3.82;100.00;94138.72;2594027;22;19999;-77
2021/09/22 01:21:55;;;;;;;8.85;7.68;;;;;;;3.84;100.00;94141.03;2582588;22;20010;-83
2021/09/22 01:22:58;;;;;;;10.60;7.90;;;;;;;3.88;100.00;94141.84;2594437;22;20010;-81
2021/09/22 01:23:58;;;;;;;8.05;7.25;;;;;;;3.79;100.00;94134.13;2594228;22;20086;-75
2021/09/22 01:24:59;;;;;;;8.65;7.75;;;;;;;3.76;100.00;94134.81;2568678;23;20088;-77
2021/09/22 01:26:00;;;;;;;9.32;7.82;;;;;;;3.85;100.00;94142.53;2581659;22;20083;-76
2021/09/22 01:27:01;;;;;;;13.07;7.93;;;;;;;3.73;100.00;94149.50;2581634;23;20011;-76
2021/09/22 01:28:03;;;;;;;9.05;7.78;;;;;;;3.68;100.00;94139.19;2556709;23;20076;-78
2021/09/22 01:29:04;;;;;;;13.85;8.85;;;;;;;3.82;100.00;94143.22;2581921;22;20324;-82
2021/09/22 01:30:06;;;;;;;12.18;7.82;;;;;;;3.78;100.00;94148.47;2581099;23;20419;-76
2021/09/22 01:31:06;;;;;;;8.70;7.47;;;;;;;3.81;100.00;94139.06;2569371;22;20008;-79
2021/09/22 01:32:11;;;;;;;10.95;8.93;;;;;;;3.82;100.00;94140.59;2581519;22;20007;-77
2021/09/22 01:33:13;;;;;;;9.50;7.95;;;;;;;3.81;100.00;94139.06;2594391;22;20035;-77
2021/09/22 01:34:14;;;;;;;9.57;8.57;;;;;;;3.85;100.00;94145.94;2594796;22;20082;-78
2021/09/22 01:35:16;;;;;;;11.13;8.45;;;;;;;3.79;100.00;94144.72;2581348;23;20098;-76
2021/09/22 01:36:17;;;;;;;13.75;9.57;;;;;;;3.82;100.00;94136.09;2581806;22;20336;-80
2021/09/22 01:37:18;;;;;;;11.10;8.98;;;;;;;3.82;100.00;94133.44;2595208;22;20403;-78
2021/09/22 01:38:26;;;;;;;10.60;8.18;;;;;;;3.82;100.00;94130.81;2581434;23;20071;-80
2021/09/22 01:39:37;;;;;;;9.90;7.43;;;;;;;3.77;100.00;94137.09;2572124;22;20032;-81
2021/09/22 01:40:37;;;;;;;;;;;;;;;3.81;100.00;94137.19;2595733;22;20011;-77
2021/09/22 01:41:38;;;;;;;10.00;7.10;;;;;;;3.76;100.00;94134.81;2583590;23;20105;-80
2021/09/22 01:42:39;;;;;;;8.38;7.47;;;;;;;3.73;100.00;94132.84;2570545;23;20336;-78
2021/09/22 01:43:40;;;;;;;8.20;7.40;;;;;;;3.72;100.00;94136.63;2569559;22;20040;-79
2021/09/22 01:44:41;;;;;;;8.57;7.57;;;;;;;3.76;100.00;94137.47;2581410;22;20004;-79
2021/09/22 01:45:42;;;;;;;13.65;8.23;;;;;;;3.87;100.00;94141.09;2568821;23;20036;-77
2021/09/22 01:46:43;;;;;;;10.35;7.85;;;;;;;3.79;100.00;94142.06;2556536;23;20005;-78
2021/09/22 01:47:44;;;;;;;9.65;7.80;;;;;;;3.65;100.00;94133.84;2569176;23;19996;-77
2021/09/22 01:48:45;;;;;;;13.07;7.85;;;;;;;3.65;100.00;94133.84;2594010;22;20533;-76
2021/09/22 01:49:46;;;;;;;9.85;8.05;;;;;;;3.62;100.00;94140.56;2581173;23;20000;-77
2021/09/22 01:50:47;;;;;;;8.23;7.38;;;;;;;3.53;100.00;94138.13;2556137;23;20344;-75
2021/09/22 01:51:55;;;;;;;9.50;7.90;;;;;;;3.59;100.00;94145.78;2568983;22;20074;-78
2021/09/22 01:52:56;;;;;;;9.82;8.38;;;;;;;3.61;100.00;94146.22;2582961;22;20000;-80
2021/09/22 01:53:57;;;;;;;9.68;7.95;;;;;;;3.62;100.00;94137.94;2581197;22;20044;-78
2021/09/22 01:54:59;;;;;;;8.77;7.88;;;;;;;3.58;100.00;94145.03;2581029;23;20003;-80
2021/09/22 01:56:01;;;;;;;9.38;7.97;;;;;;;3.47;100.00;94152.72;2581214;23;20421;-83
2021/09/22 01:57:02;;;;;;;8.60;7.78;;;;;;;3.56;100.00;94141.97;2581745;22;20007;-80
2021/09/22 01:58:03;;;;;;;8.65;7.70;;;;;;;3.58;100.00;94142.38;2581676;22;20019;-79
2021/09/22 01:59:04;;;;;;;12.23;7.88;;;;;;;3.58;100.00;94145.03;2581335;23;20008;-80
2021/09/22 02:00:06;;;;;;;10.60;8.07;;;;;;;3.69;100.00;94150.56;2568581;23;20157;-80
2021/09/22 02:01:12;;;;;;;10.88;8.48;;;;;;;3.75;100.00;94146.50;2569030;23;20000;-78
2021/09/22 02:02:13;;;;;;;8.07;7.28;;;;;;;3.76;100.00;94142.75;2582474;22;20012;-80
2021/09/22 02:03:16;;;;;;;10.73;8.32;;;;;;;3.67;100.00;94150.13;2594990;22;20014;-78
2021/09/22 02:04:17;;;;;;;11.45;7.95;;;;;;;3.58;100.00;94147.66;2594195;22;20007;-79
2021/09/22 02:05:19;;;;;;;8.40;7.53;;;;;;;3.60;100.00;94144.66;2581415;22;20026;-77
2021/09/22 02:06:20;;;;;;;7.88;7.03;;;;;;;3.62;100.00;94137.94;2594041;22;20127;-79
2021/09/22 02:07:21;;;;;;;9.40;7.72;;;;;;;3.66;100.00;94140.66;2593964;22;20014;-80
2021/09/22 02:08:22;;;;;;;9.18;7.80;;;;;;;3.68;100.00;94138.41;2581481;22;20039;-78
2021/09/22 02:09:23;;;;;;;10.27;8.40;;;;;;;3.53;100.00;94132.06;2581465;22;20015;-76
2021/09/22 02:10:24;;;;;;;8.68;7.78;;;;;;;3.50;100.00;94141.44;2580963;22;20108;-76
2021/09/22 02:11:25;;;;;;;12.93;7.22;;;;;;;3.42;100.00;94142.41;2594314;22;19995;-79
2021/09/22 02:12:27;;;;;;;10.65;8.27;;;;;;;3.57;100.00;94146.13;2593897;22;20031;-77
2021/09/22 02:13:27;;;;;;;8.65;7.45;;;;;;;3.52;100.00;94141.13;2581616;22;20011;-81
2021/09/22 02:14:28;;;;;;;7.97;7.18;;;;;;;3.49;100.00;94141.81;2593941;22;20023;-76
2021/09/22 02:15:29;;;;;;;10.30;7.38;;;;;;;3.50;100.00;94138.81;2594667;22;20050;-78
2021/09/22 02:16:30;;;;;;;8.75;7.40;;;;;;;3.54;100.00;94139.66;2594099;22;20014;-81
2021/09/22 02:17:31;;;;;;;8.82;7.93;;;;;;;3.52;100.00;94139.25;2594091;22;20446;-79
2021/09/22 02:18:32;;;;;;;10.60;8.68;;;;;;;3.46;100.00;94137.97;2594674;22;20014;-75
2021/09/22 02:19:33;;;;;;;10.15;8.05;;;;;;;3.50;100.00;94140.69;2594074;22;20003;-81
2021/09/22 02:20:35;;;;;;;8.23;7.13;;;;;;;3.56;100.00;94141.19;2580649;22;20000;-79
2021/09/22 02:21:36;;;;;;;11.60;7.95;;;;;;;3.62;100.00;94143.22;2581737;22;20067;-77
2021/09/22 02:22:37;;;;;;;10.05;8.63;;;;;;;3.63;100.00;94138.69;2581270;23;20027;-78
2021/09/22 02:23:40;;;;;;;8.82;7.40;;;;;;;3.63;100.00;94141.34;2594060;22;20059;-78
2021/09/22 02:24:44;;;;;;;12.32;7.43;;;;;;;3.48;100.00;94129.72;2595034;22;20344;-79
2021/09/22 02:25:45;;;;;;;10.55;7.28;;;;;;;3.49;100.00;94137.28;2593717;22;20003;-78
2021/09/22 02:26:46;;;;;;;11.82;7.25;;;;;;;3.40;100.00;94149.94;2594923;22;20389;-77
2021/09/22 02:27:48;;;;;;;9.07;6.63;;;;;;;3.33;100.00;94144.47;2594963;22;20423;-79
2021/09/22 02:28:48;;;;;;;9.38;7.57;;;;;;;3.45;100.00;94146.25;2581882;23;20004;-77
2021/09/22 02:29:49;;;;;;;12.10;7.45;;;;;;;3.50;100.00;94149.38;2581399;22;20004;-80
2021/09/22 02:30:50;;;;;;;9.77;7.68;;;;;;;3.51;100.00;94153.56;2593820;22;20089;-79
2021/09/22 02:31:51;;;;;;;9.63;7.75;;;;;;;3.58;100.00;94145.03;2595204;22;20034;-80
2021/09/22 02:32:52;;;;;;;8.20;6.88;;;;;;;3.44;100.00;94142.84;2594658;22;20010;-78
2021/09/22 02:33:53;;;;;;;11.75;7.70;;;;;;;3.40;100.00;94147.28;2581024;23;20004;-75
2021/09/22 02:34:54;;;;;;;8.40;6.93;;;;;;;3.45;100.00;94135.69;2556558;23;20001;-77
2021/09/22 02:35:55;;;;;;;8.82;7.93;;;;;;;3.44;100.00;94131.50;2568546;22;20348;-76
2021/09/22 02:36:56;;;;;;;15.07;7.97;;;;;;;3.36;100.00;94140.38;2569028;23;20005;-82
2021/09/22 02:37:57;;;;;;;8.65;7.57;;;;;;;3.30;100.00;94139.91;2581797;22;20443;-77
2021/09/22 02:38:58;;;;;;;8.68;7.47;;;;;;;3.24;100.00;94133.31;2594725;22;19999;-78
2021/09/22 02:39:59;;;;;;;9.05;7.82;;;;;;;3.43;100.00;94132.63;2594673;22;20014;-78
2021/09/22 02:41:00;;;;;;;11.63;8.23;;;;;;;3.37;100.00;94133.97;2593726;22;20012;-79
2021/09/22 02:42:01;;;;;;;8.68;7.30;;;;;;;3.45;100.00;94141.72;2581281;23;20386;-78
2021/09/22 02:43:02;;;;;;;8.77;7.20;;;;;;;3.43;100.00;94133.38;2581327;22;20010;-79
2021/09/22 02:44:04;;;;;;;9.20;7.90;;;;;;;3.43;100.00;94143.97;2581029;22;20106;-81
2021/09/22 02:45:05;;;;;;;11.77;8.13;;;;;;;3.44;100.00;94134.91;2581783;22;20035;-79
2021/09/22 02:46:06;;;;;;;9.27;8.05;;;;;;;3.22;100.00;94135.56;2593825;22;20087;-80
2021/09/22 02:47:07;;;;;;;14.73;7.82;;;;;;;3.18;100.00;94138.13;2594367;22;20327;-80
2021/09/22 02:48:08;;;;;;;9.07;7.93;;;;;;;3.23;100.00;94137.09;2581609;22;19996;-78
2021/09/22 02:49:09;;;;;;;12.07;8.25;;;;;;;3.22;100.00;94143.47;2581215;23;20004;-82
2021/09/22 02:50:13;;;;;;;10.48;7.93;;;;;;;3.25;100.00;94140.16;2581039;23;20379;-82
2021/09/22 02:51:14;;;;;;;10.57;7.82;;;;;;;3.22;100.00;94138.19;2569658;23;20103;-79
2021/09/22 02:52:15;;;;;;;8.32;7.53;;;;;;;3.32;100.00;94132.38;2568848;22;20032;-77
2021/09/22 02:53:16;;;;;;;8.25;7.45;;;;;;;3.28;100.00;94134.94;2581684;22;20336;-77
2021/09/22 02:54:17;;;;;;;9.48;7.78;;;;;;;3.21;100.00;94126.09;2593613;22;20000;-78
2021/09/22 02:55:18;;;;;;;8.93;8.02;;;;;;;3.17;100.00;94126.03;2594640;22;20338;-81
2021/09/22 02:56:19;;;;;;;11.65;7.50;;;;;;;3.25;100.00;94124.31;2594005;22;20045;-79
2021/09/22 02:57:20;;;;;;;9.45;8.25;;;;;;;3.30;100.00;94124.03;2581265;22;20008;-76
2021/09/22 02:58:21;;;;;;;8.88;7.95;;;;;;;3.38;100.00;94120.44;2593860;22;20011;-78
2021/09/22 02:59:21;;;;;;;10.35;8.05;;;;;;;3.31;100.00;94124.81;2594241;22;20086;-79
2021/09/22 03:00:22;;;;;;;11.65;7.85;;;;;;;3.37;100.00;94120.78;2593718;22;20058;-80
2021/09/22 03:01:23;;;;;;;8.68;7.78;;;;;;;3.29;100.00;94127.78;2581096;22;20007;-81
2021/09/22 03:02:24;;;;;;;9.55;7.68;;;;;;;3.23;100.00;94134.44;2581590;22;20308;-77
2021/09/22 03:03:25;;;;;;;10.05;8.48;;;;;;;3.23;100.00;94135.19;2594315;22;20039;-81
2021/09/22 03:04:26;;;;;;;10.73;8.07;;;;;;;3.23;100.00;94131.81;2594858;22;20338;-79
2021/09/22 03:05:27;;;;;;;9.18;8.07;;;;;;;3.17;100.00;94135.81;2593591;22;20026;-76
2021/09/22 03:06:29;;;;;;;10.32;8.75;;;;;;;3.27;100.00;94130.00;2593827;22;20007;-80
2021/09/22 03:07:30;;;;;;;11.63;8.25;;;;;;;3.21;100.00;94126.88;2594237;22;20452;-78
2021/09/22 03:08:31;;;;;;;11.43;8.57;;;;;;;3.33;100.00;94127.84;2581725;22;20054;-80
2021/09/22 03:09:32;;;;;;;11.88;8.20;;;;;;;3.28;100.00;94127.00;2581204;22;20003;-77
2021/09/22 03:10:33;;;;;;;10.60;8.35;;;;;;;3.14;100.00;94126.69;2581117;23;20008;-76
2021/09/22 03:11:34;;;;;;;12.32;8.63;;;;;;;3.12;100.00;94122.88;2594512;22;19999;-79
2021/09/22 03:12:35;;;;;;;13.98;8.75;;;;;;;3.12;100.00;94112.31;2594920;22;20030;-80
2021/09/22 03:13:37;;;;;;;11.55;8.60;;;;;;;3.14;100.00;94116.13;2594578;22;20372;-81
2021/09/22 03:14:38;;;;;;;11.02;8.80;;;;;;;3.10;100.00;94110.00;2594621;22;20006;-77
2021/09/22 03:15:39;;;;;;;9.75;7.93;;;;;;;3.18;100.00;94114.34;2594633;22;20485;-82
2021/09/22 03:16:40;;;;;;;11.75;8.52;;;;;;;3.23;100.00;94116.72;2569335;23;20100;-79
2021/09/22 03:17:41;;;;;;;13.23;8.50;;;;;;;3.19;100.00;94104.53;2582093;22;20000;-77
2021/09/22 03:18:42;;;;;;;13.88;9.38;;;;;;;3.18;100.00;94113.56;2594664;22;20118;-79
2021/09/22 03:19:43;;;;;;;10.15;8.55;;;;;;;3.21;100.00;94105.72;2582258;22;20004;-78
2021/09/22 03:20:44;;;;;;;14.25;9.80;;;;;;;3.17;100.00;94109.41;2569270;23;20001;-79
2021/09/22 03:21:45;;;;;;;10.13;9.05;;;;;;;3.09;100.00;94118.28;2556809;23;20009;-78
2021/09/22 03:22:46;;;;;;;9.77;8.65;;;;;;;3.17;100.00;94109.41;2569203;23;20309;-78
2021/09/22 03:23:47;;;;;;;11.40;8.48;;;;;;;3.16;100.00;94110.50;2582078;23;20008;-77
2021/09/22 03:24:48;;;;;;;11.43;9.73;;;;;;;3.08;100.00;94114.13;2581912;22;20008;-79
2021/09/22 03:25:49;;;;;;;9.70;8.43;;;;;;;3.06;100.00;94103.09;2594465;22;20121;-78
2021/09/22 03:26:50;;;;;;;14.05;8.50;;;;;;;3.11;100.00;94103.59;2581811;23;20091;-78
2021/09/22 03:27:51;;;;;;;12.82;9.25;;;;;;;3.09;100.00;94111.13;2581901;22;20008;-79
2021/09/22 03:28:52;;;;;;;9.93;8.55;;;;;;;3.08;100.00;94106.19;2594577;22;20011;-75
2021/09/22 03:29:53;;;;;;;11.07;9.00;;;;;;;3.02;100.00;94113.59;2569224;23;20004;-77
2021/09/22 03:30:54;;;;;;;12.57;8.73;;;;;;;2.97;100.00;94104.06;2581977;22;20069;-80
2021/09/22 03:31:55;;;;;;;15.73;8.88;;;;;;;3.00;100.00;94106.00;2581989;23;20004;-80
2021/09/22 03:32:56;;;;;;;12.93;8.88;;;;;;;3.11;100.00;94108.88;2556834;23;20099;-76
2021/09/22 03:33:57;;;;;;;12.70;8.63;;;;;;;3.04;100.00;94111.38;2582297;22;20105;-78
2021/09/22 03:34:58;;;;;;;9.35;8.18;;;;;;;3.09;100.00;94102.44;2596149;22;20000;-77
2021/09/22 03:35:59;;;;;;;9.98;8.48;;;;;;;2.96;100.00;94102.53;2596183;22;19999;-78
2021/09/22 03:37:00;;;;;;;10.30;8.30;;;;;;;3.00;100.00;94100.72;2583180;22;20091;-82
2021/09/22 03:38:01;;;;;;;10.93;8.35;;;;;;;3.08;100.00;94103.53;2569416;23;20008;-81
2021/09/22 03:39:03;;;;;;;10.60;8.75;;;;;;;2.94;100.00;94102.13;2569912;22;20009;-80
2021/09/22 03:40:05;;;;;;;10.77;8.60;;;;;;;2.90;100.00;94111.06;2569516;23;20008;-81
2021/09/22 03:41:06;;;;;;;9.82;8.35;;;;;;;2.90;100.00;94097.88;2570032;22;20436;-80
2021/09/22 03:42:07;;;;;;;16.90;8.95;;;;;;;2.87;100.00;94104.59;2581769;22;20008;-77
2021/09/22 03:43:09;;;;;;;10.10;8.00;;;;;;;2.94;100.00;94094.19;2594188;22;20431;-82
2021/09/22 03:44:09;;;;;;;14.27;8.88;;;;;;;2.83;100.00;94100.31;2594505;22;20003;-77
2021/09/22 03:45:10;;;;;;;11.13;9.40;;;;;;;2.92;100.00;94095.63;2582132;23;20378;-77
2021/09/22 03:46:12;;;;;;;11.05;9.13;;;;;;;3.09;100.00;94107.72;2594989;22;20010;-80
2021/09/22 03:47:13;;;;;;;11.23;9.40;;;;;;;3.13;100.00;94092.72;2581773;23;20004;-81
2021/09/22 03:48:15;;;;;;;11.65;8.68;;;;;;;3.01;100.00;94102.25;2569330;22;20076;-78
2021/09/22 03:49:16;;;;;;;13.13;9.68;;;;;;;3.00;100.00;94102.63;2581939;23;20006;-79
2021/09/22 03:50:19;;;;;;;11.18;8.93;;;;;;;2.97;100.00;94105.94;2568913;23;20010;-79
2021/09/22 03:51:20;;;;;;;15.27;9.77;;;;;;;2.91;100.00;94108.06;2570693;22;20015;-81
2021/09/22 03:52:21;;;;;;;11.27;8.32;;;;;;;2.83;100.00;94110.88;2594738;22;20079;-81
2021/09/22 03:53:22;;;;;;;15.73;10.52;;;;;;;2.99;100.00;94112.41;2594693;22;20003;-78
2021/09/22 03:54:23;;;;;;;15.30;9.25;;;;;;;3.01;100.00;94112.06;2581766;23;20000;-79
2021/09/22 03:55:24;;;;;;;12.15;9.23;;;;;;;2.91;100.00;94110.72;2569861;22;20348;-78
2021/09/22 03:56:25;;;;;;;14.23;9.63;;;;;;;2.99;100.00;94101.09;2582148;22;20588;-80
2021/09/22 03:57:26;;;;;;;14.55;9.40;;;;;;;3.03;100.00;94102.69;2581861;22;20003;-75
2021/09/22 03:58:27;;;;;;;12.02;9.88;;;;;;;2.96;100.00;94101.75;2581819;22;20007;-81
2021/09/22 03:59:28;;;;;;;18.52;9.43;;;;;;;2.93;100.00;94095.28;2569633;23;20013;-80
2021/09/22 04:00:28;;;;;;;15.30;9.95;;;;;;;2.96;100.00;94099.88;2569714;22;20444;-77
2021/09/22 04:01:30;;;;;;;10.32;8.95;;;;;;;2.96;100.00;94097.25;2581970;23;20359;-78
2021/09/22 04:02:31;;;;;;;11.02;9.43;;;;;;;2.90;100.00;94096.00;2581976;22;20099;-80
2021/09/22 04:03:33;;;;;;;11.43;8.70;;;;;;;2.89;100.00;94104.22;2582340;22;20000;-79
2021/09/22 04:04:34;;;;;;;12.70;8.82;;;;;;;2.94;100.00;94107.41;2594435;22;20003;-81
2021/09/22 04:05:35;;;;;;;11.30;8.75;;;;;;;2.91;100.00;94096.75;2595265;22;20011;-75
2021/09/22 04:06:38;;;;;;;11.43;8.55;;;;;;;2.97;100.00;94100.66;2595250;22;20004;-77
2021/09/22 04:07:39;;;;;;;13.20;8.90;;;;;;;2.89;100.00;94101.59;2581846;23;20400;-82
2021/09/22 04:08:40;;;;;;;11.68;10.25;;;;;;;2.89;100.00;94110.28;2569773;23;20031;-79
2021/09/22 04:09:41;;;;;;;12.00;9.35;;;;;;;2.87;100.00;94111.75;2583941;23;20130;-78
2021/09/22 04:10:42;;;;;;;12.30;9.93;;;;;;;2.87;100.00;94104.59;2595947;22;20012;-78
2021/09/22 04:11:43;;;;;;;11.45;9.30;;;;;;;2.78;100.00;94104.75;2582412;22;20000;-79
2021/09/22 04:12:44;;;;;;;12.73;9.38;;;;;;;2.72;100.00;94110.63;2581874;22;20523;-77
2021/09/22 04:13:45;;;;;;;11.80;9.82;;;;;;;2.86;100.00;94105.69;2582306;22;20331;-77
2021/09/22 04:14:46;;;;;;;11.20;9.73;;;;;;;2.86;100.00;94105.69;2569375;23;20416;-81
2021/09/22 04:15:47;;;;;;;11.23;8.80;;;;;;;2.82;100.00;94107.47;2581728;23;20234;-78
2021/09/22 04:16:48;;;;;;;11.50;9.27;;;;;;;2.90;100.00;94108.44;2569461;23;20024;-79
2021/09/22 04:17:49;;;;;;;12.55;9.50;;;;;;;2.84;100.00;94105.25;2569083;23;20407;-81
2021/09/22 04:18:50;;;;;;;10.80;8.75;;;;;;;2.88;100.00;94108.75;2569179;22;20016;-78
2021/09/22 04:19:51;;;;;;;13.45;10.13;;;;;;;2.92;100.00;94106.19;2581688;23;20070;-81
2021/09/22 04:20:52;;;;;;;12.10;9.73;;;;;;;2.92;100.00;94108.84;2594336;22;20046;-82
2021/09/22 04:21:53;;;;;;;11.57;9.50;;;;;;;2.86;100.00;94112.84;2594420;22;20391;-76
2021/09/22 04:22:54;;;;;;;11.52;9.48;;;;;;;2.89;100.00;94109.50;2594580;22;20006;-79
2021/09/22 04:23:55;;;;;;;13.85;9.88;;;;;;;2.79;100.00;94105.53;2594551;22;20007;-76
2021/09/22 04:24:55;;;;;;;12.80;9.35;;;;;;;2.80;100.00;94099.13;2581920;22;20011;-79
2021/09/22 04:25:56;;;;;;;11.82;9.60;;;;;;;2.79;100.00;94100.25;2569199;23;20526;-77
2021/09/22 04:26:58;;;;;;;12.00;9.23;;;;;;;2.86;100.00;94095.13;2581976;22;20004;-78
2021/09/22 04:27:59;;;;;;;12.90;9.90;;;;;;;2.77;100.00;94097.19;2595511;22;20011;-79
2021/09/22 04:29:00;;;;;;;13.48;9.18;;;;;;;2.83;100.00;94095.03;2594472;22;20003;-75
2021/09/22 04:30:02;;;;;;;12.40;10.13;;;;;;;2.76;100.00;94106.19;2569188;23;20135;-77
2021/09/22 04:31:03;;;;;;;11.52;9.23;;;;;;;2.77;100.00;94100.59;2557431;23;20008;-81
2021/09/22 04:32:04;;;;;;;10.45;9.07;;;;;;;2.71;100.00;94101.19;2569280;23;20004;-79
2021/09/22 04:33:05;;;;;;;11.43;9.15;;;;;;;2.78;100.00;94101.34;2582017;22;20000;-77
2021/09/22 04:34:06;;;;;;;12.38;9.45;;;;;;;2.78;100.00;94096.06;2582276;23;20027;-84
2021/09/22 04:35:08;;;;;;;11.77;9.52;;;;;;;2.81;100.00;94098.03;2557121;23;20088;-80
2021/09/22 04:36:09;;;;;;;13.55;9.43;;;;;;;2.77;100.00;94090.03;2569414;22;20071;-78
2021/09/22 04:37:10;;;;;;;11.20;9.25;;;;;;;2.74;100.00;94087.31;2581511;23;20419;-77
2021/09/22 04:38:11;;;;;;;10.88;8.85;;;;;;;2.89;100.00;94091.78;2569311;23;20028;-79
2021/09/22 04:39:13;;;;;;;13.40;9.95;;;;;;;2.88;100.00;94092.16;2569479;22;20074;-79
2021/09/22 04:40:14;;;;;;;11.25;9.18;;;;;;;2.91;100.00;94088.81;2569559;23;20028;-80
2021/09/22 04:41:16;;;;;;;10.80;9.10;;;;;;;2.83;100.00;94089.78;2582058;22;20003;-79
2021/09/22 04:42:17;;;;;;;11.93;9.02;;;;;;;2.87;100.00;94101.94;2581506;23;20014;-78
2021/09/22 04:43:18;;;;;;;11.20;8.98;;;;;;;2.90;100.00;94095.22;2582135;22;20004;-81
2021/09/22 04:44:19;;;;;;;13.52;9.98;;;;;;;2.90;100.00;94100.50;2581596;23;20035;-78
2021/09/22 04:45:22;;;;;;;12.88;9.63;;;;;;;2.74;100.00;94103.16;2569655;22;20032;-77
2021/09/22 04:46:23;;;;;;;14.25;9.65;;;;;;;2.92;100.00;94108.84;2569774;23;20377;-80
2021/09/22 04:47:24;;;;;;;14.55;9.63;;;;;;;2.81;100.00;94105.97;2581775;22;20529;-76